Time;durP1;ratioP1;P1;durP2;ratioP2;P2;SDS_P1;SDS_P2;PMS_P1;PMS_P2;Temp;Humidity;BMP_temperature;BMP_pressure;BME280_temperature;BME280_humidity;BME280_pressure;Samples;Min_cycle;Max_cycle;Signal;HPM_P1;HPM_P2
2021/09/17 00:01:20;;;;;;;1.52;1.42;;;;;;;;;;5066379;28;20387;-57
2021/09/17 00:03:46;;;;;;;1.73;1.40;;;;;;;;;;5065129;28;20035;-56
2021/09/17 00:06:12;;;;;;;1.42;1.30;;;;;;;;;;5066265;28;20543;-56
2021/09/17 00:08:38;;;;;;;1.65;1.55;;;;;;;;;;5066300;28;20028;-56
2021/09/17 00:11:06;;;;;;;1.42;1.33;;;;;;;;;;5071018;28;20024;-55
2021/09/17 00:13:33;;;;;;;1.25;1.15;;;;;;;;;;5072479;28;20032;-57
2021/09/17 00:15:59;;;;;;;1.58;1.38;;;;;;;;;;5066136;28;20074;-56
2021/09/17 00:18:25;;;;;;;1.40;1.30;;;;;;;;;;5075959;28;20035;-57
2021/09/17 00:20:52;;;;;;;1.30;1.20;;;;;;;;;;5085834;28;20031;-55
2021/09/17 00:23:18;;;;;;;1.20;1.10;;;;;;;;;;5085484;28;20124;-56
2021/09/17 00:25:44;;;;;;;1.70;1.60;;;;;;;;;;5086243;28;20076;-56
2021/09/17 00:28:10;;;;;;;1.33;1.23;;;;;;;;;;5086084;28;20115;-56
2021/09/17 00:30:36;;;;;;;1.20;1.10;;;;;;;;;;5086539;28;20086;-56
2021/09/17 00:33:03;;;;;;;1.40;1.30;;;;;;;;;;5073448;28;20082;-56
2021/09/17 00:35:29;;;;;;;1.23;1.13;;;;;;;;;;5065506;28;20020;-56
2021/09/17 00:37:56;;;;;;;1.48;1.17;;;;;;;;;;5065722;28;20033;-56
2021/09/17 00:40:22;;;;;;;1.25;1.15;;;;;;;;;;5066483;28;20027;-56
2021/09/17 00:42:48;;;;;;;1.35;1.20;;;;;;;;;;5075273;28;20200;-55
2021/09/17 00:45:15;;;;;;;1.33;1.23;;;;;;;;;;5085443;28;20575;-56
2021/09/17 00:47:42;;;;;;;1.35;1.23;;;;;;;;;;5085286;28;20032;-57
2021/09/17 00:50:10;;;;;;;1.23;1.13;;;;;;;;;;5085666;28;20032;-58
2021/09/17 00:52:37;;;;;;;1.20;1.10;;;;;;;;;;5084396;28;20039;-57
2021/09/17 00:55:03;;;;;;;1.30;1.10;;;;;;;;;;5088841;28;20028;-57
2021/09/17 00:57:29;;;;;;;1.35;1.25;;;;;;;;;;5074422;28;20036;-56
2021/09/17 00:59:56;;;;;;;1.00;1.00;;;;;;;;;;5069613;28;20017;-56
2021/09/17 01:02:22;;;;;;;2.47;1.00;;;;;;;;;;5074458;28;20035;-57
2021/09/17 01:04:48;;;;;;;1.30;1.13;;;;;;;;;;5090727;28;20050;-56
2021/09/17 01:07:14;;;;;;;2.33;1.52;;;;;;;;;;5089590;28;20028;-56
2021/09/17 01:09:40;;;;;;;1.98;1.23;;;;;;;;;;5090028;28;20579;-56
2021/09/17 01:12:07;;;;;;;1.45;1.20;;;;;;;;;;5085763;28;20106;-56
2021/09/17 01:14:34;;;;;;;3.03;1.00;;;;;;;;;;5069731;28;20588;-57
2021/09/17 01:17:00;;;;;;;1.25;1.10;;;;;;;;;;5067050;28;20121;-56
2021/09/17 01:19:27;;;;;;;1.30;1.20;;;;;;;;;;5069323;28;20550;-56
2021/09/17 01:22:00;;;;;;;1.30;1.20;;;;;;;;;;5068041;28;20035;-56
2021/09/17 01:24:27;;;;;;;1.05;1.05;;;;;;;;;;5069652;28;20025;-57
2021/09/17 01:26:53;;;;;;;1.42;1.10;;;;;;;;;;5069018;28;20047;-57
2021/09/17 01:29:19;;;;;;;1.77;1.10;;;;;;;;;;5068066;28;20115;-56
2021/09/17 01:31:46;;;;;;;1.42;1.30;;;;;;;;;;5068462;28;20050;-57
2021/09/17 01:34:15;;;;;;;1.30;1.20;;;;;;;;;;5067577;28;20074;-56
2021/09/17 01:36:41;;;;;;;1.20;1.02;;;;;;;;;;5068952;28;20036;-56
2021/09/17 01:39:07;;;;;;;1.10;1.00;;;;;;;;;;5069030;28;20686;-56
2021/09/17 01:41:33;;;;;;;1.25;1.10;;;;;;;;;;5069079;28;20021;-56
2021/09/17 01:44:00;;;;;;;1.30;1.20;;;;;;;;;;5067556;28;20033;-56
2021/09/17 01:46:26;;;;;;;1.40;1.30;;;;;;;;;;5068785;28;20542;-56
2021/09/17 01:48:52;;;;;;;1.48;1.38;;;;;;;;;;5068863;28;20012;-57
2021/09/17 01:51:18;;;;;;;1.00;1.00;;;;;;;;;;5080922;28;20035;-57
2021/09/17 01:53:44;;;;;;;1.30;1.20;;;;;;;;;;5087714;28;20069;-56
2021/09/17 01:56:11;;;;;;;2.25;1.10;;;;;;;;;;5088684;28;20028;-55
2021/09/17 01:58:37;;;;;;;1.10;1.00;;;;;;;;;;5089590;28;20017;-57
2021/09/17 02:01:03;;;;;;;1.25;0.90;;;;;;;;;;5089404;28;20081;-57
2021/09/17 02:03:29;;;;;;;0.70;0.70;;;;;;;;;;5078981;28;20024;-57
2021/09/17 02:05:55;;;;;;;1.17;1.02;;;;;;;;;;5068002;28;20087;-56
2021/09/17 02:08:21;;;;;;;1.25;0.90;;;;;;;;;;5068853;28;20441;-56
2021/09/17 02:10:48;;;;;;;1.33;1.23;;;;;;;;;;5068901;28;20030;-57
2021/09/17 02:13:19;;;;;;;0.73;0.73;;;;;;;;;;5067390;28;20020;-57
2021/09/17 02:15:45;;;;;;;1.00;0.98;;;;;;;;;;5068586;28;20513;-56
2021/09/17 02:18:11;;;;;;;1.10;1.00;;;;;;;;;;5068245;28;20438;-57
2021/09/17 02:20:38;;;;;;;2.05;1.20;;;;;;;;;;5069608;28;20028;-56
2021/09/17 02:23:05;;;;;;;1.20;1.00;;;;;;;;;;5083576;28;20027;-56
2021/09/17 02:25:31;;;;;;;1.13;1.02;;;;;;;;;;5068254;28;20040;-56
2021/09/17 02:27:57;;;;;;;1.08;0.98;;;;;;;;;;5068216;28;20449;-56
2021/09/17 02:30:23;;;;;;;1.20;1.10;;;;;;;;;;5068276;28;20036;-57
2021/09/17 02:32:49;;;;;;;1.05;1.00;;;;;;;;;;5075643;28;20029;-57
2021/09/17 02:35:15;;;;;;;1.50;1.08;;;;;;;;;;5049711;28;20024;-57
2021/09/17 02:37:42;;;;;;;1.30;1.20;;;;;;;;;;5067251;28;20020;-56
2021/09/17 02:40:10;;;;;;;1.30;0.98;;;;;;;;;;5067170;28;20032;-58
2021/09/17 02:42:36;;;;;;;1.23;1.13;;;;;;;;;;5068747;28;20036;-57
2021/09/17 02:45:03;;;;;;;0.93;0.93;;;;;;;;;;5088378;28;20119;-57
2021/09/17 02:47:29;;;;;;;0.93;0.90;;;;;;;;;;5070145;28;20449;-57
2021/09/17 02:49:55;;;;;;;1.10;1.00;;;;;;;;;;5087707;28;20024;-57
2021/09/17 02:52:22;;;;;;;1.10;1.00;;;;;;;;;;5073915;28;20039;-56
2021/09/17 02:54:48;;;;;;;1.23;1.13;;;;;;;;;;5069070;28;20028;-57
2021/09/17 02:57:14;;;;;;;0.90;0.90;;;;;;;;;;5087642;28;20466;-56
2021/09/17 02:59:40;;;;;;;1.10;1.02;;;;;;;;;;5087995;28;20020;-57
2021/09/17 03:02:06;;;;;;;1.20;1.10;;;;;;;;;;5085161;28;20313;-57
2021/09/17 03:04:32;;;;;;;0.82;0.82;;;;;;;;;;5068001;28;20047;-56
2021/09/17 03:06:59;;;;;;;1.08;0.98;;;;;;;;;;5067224;28;20073;-56
2021/09/17 03:09:25;;;;;;;1.17;1.08;;;;;;;;;;5067684;28;20108;-56
2021/09/17 03:11:51;;;;;;;1.67;1.52;;;;;;;;;;5067186;28;20444;-55
2021/09/17 03:14:18;;;;;;;1.13;1.10;;;;;;;;;;5066436;28;20099;-57
2021/09/17 03:16:44;;;;;;;1.17;1.08;;;;;;;;;;5066475;28;20107;-57
2021/09/17 03:19:10;;;;;;;0.98;0.93;;;;;;;;;;5066968;28;20031;-57
2021/09/17 03:21:36;;;;;;;1.10;1.00;;;;;;;;;;5067605;28;20099;-57
2021/09/17 03:24:03;;;;;;;1.17;1.05;;;;;;;;;;5081840;28;20028;-57
2021/09/17 03:26:29;;;;;;;1.30;1.20;;;;;;;;;;5081162;28;20032;-56
2021/09/17 03:28:56;;;;;;;1.27;1.05;;;;;;;;;;5065356;28;20052;-57
2021/09/17 03:31:22;;;;;;;2.10;1.50;;;;;;;;;;5067406;28;20021;-57
2021/09/17 03:33:48;;;;;;;1.20;1.10;;;;;;;;;;5079346;28;20557;-57
2021/09/17 03:36:14;;;;;;;1.38;1.27;;;;;;;;;;5086787;28;20701;-57
2021/09/17 03:38:40;;;;;;;2.20;1.00;;;;;;;;;;5087038;28;20111;-57
2021/09/17 03:41:06;;;;;;;1.35;1.25;;;;;;;;;;5086946;28;20020;-56
2021/09/17 03:43:33;;;;;;;1.17;1.00;;;;;;;;;;5085207;28;20093;-56
2021/09/17 03:45:59;;;;;;;1.17;1.05;;;;;;;;;;5085575;28;20039;-57
2021/09/17 03:48:26;;;;;;;2.55;1.20;;;;;;;;;;5087112;28;20113;-56
2021/09/17 03:50:52;;;;;;;1.92;1.40;;;;;;;;;;5086445;28;20055;-57
2021/09/17 03:53:18;;;;;;;1.75;1.20;;;;;;;;;;5077318;28;20063;-57
2021/09/17 03:55:44;;;;;;;1.48;1.23;;;;;;;;;;5066631;28;20396;-57
2021/09/17 03:58:12;;;;;;;1.20;1.10;;;;;;;;;;5066705;28;20029;-57
2021/09/17 04:00:38;;;;;;;1.20;1.10;;;;;;;;;;5066686;28;20013;-56
2021/09/17 04:03:04;;;;;;;1.38;1.27;;;;;;;;;;5047334;28;20028;-57
2021/09/17 04:05:31;;;;;;;1.30;1.20;;;;;;;;;;5066221;28;20029;-56
2021/09/17 04:07:57;;;;;;;2.85;1.15;;;;;;;;;;5066416;28;20063;-57
2021/09/17 04:10:23;;;;;;;1.10;1.10;;;;;;;;;;5066772;28;20112;-57
2021/09/17 04:12:49;;;;;;;1.83;1.60;;;;;;;;;;5066081;28;20055;-57
2021/09/17 04:15:16;;;;;;;1.92;1.40;;;;;;;;;;5066687;28;20047;-57
2021/09/17 04:17:42;;;;;;;1.40;1.30;;;;;;;;;;5066681;28;20028;-57
2021/09/17 04:20:09;;;;;;;1.58;1.48;;;;;;;;;;5066046;28;20024;-57
2021/09/17 04:22:36;;;;;;;1.38;1.27;;;;;;;;;;5065279;28;20036;-56
2021/09/17 04:25:03;;;;;;;1.30;1.20;;;;;;;;;;5085185;28;20024;-56
2021/09/17 04:27:29;;;;;;;1.42;1.33;;;;;;;;;;5086275;28;20035;-58
2021/09/17 04:29:55;;;;;;;1.50;1.40;;;;;;;;;;5085329;28;20078;-58
2021/09/17 04:32:21;;;;;;;1.38;1.27;;;;;;;;;;5084702;28;20028;-57
2021/09/17 04:34:47;;;;;;;1.50;1.40;;;;;;;;;;5068679;28;20028;-57
2021/09/17 04:37:14;;;;;;;1.73;1.40;;;;;;;;;;5065836;28;20055;-57
2021/09/17 04:39:40;;;;;;;2.33;1.58;;;;;;;;;;5066567;28;20032;-56
2021/09/17 04:42:06;;;;;;;1.25;1.15;;;;;;;;;;5065813;28;20101;-57
2021/09/17 04:44:32;;;;;;;1.23;1.13;;;;;;;;;;5079612;28;20032;-56
2021/09/17 04:46:58;;;;;;;1.55;1.45;;;;;;;;;;5085955;28;20043;-57
2021/09/17 04:49:24;;;;;;;3.60;1.63;;;;;;;;;;5086514;28;20024;-57
2021/09/17 04:51:50;;;;;;;1.30;1.20;;;;;;;;;;5086093;28;20108;-57
2021/09/17 04:54:17;;;;;;;1.40;1.30;;;;;;;;;;5085146;28;20024;-57
2021/09/17 04:56:43;;;;;;;1.58;1.48;;;;;;;;;;5081716;28;20025;-57
2021/09/17 04:59:12;;;;;;;2.08;1.48;;;;;;;;;;5065753;28;20028;-57
2021/09/17 05:01:39;;;;;;;1.80;1.58;;;;;;;;;;5066045;28;20036;-57
2021/09/17 05:04:05;;;;;;;1.70;1.60;;;;;;;;;;5074536;28;20158;-57
2021/09/17 05:06:31;;;;;;;1.60;1.50;;;;;;;;;;5085810;28;20032;-57
2021/09/17 05:08:57;;;;;;;1.90;1.67;;;;;;;;;;5084004;28;20103;-57
2021/09/17 05:11:23;;;;;;;1.70;1.52;;;;;;;;;;5068690;28;20034;-58
2021/09/17 05:13:50;;;;;;;2.08;1.70;;;;;;;;;;5079825;28;20024;-55
2021/09/17 05:16:16;;;;;;;1.70;1.30;;;;;;;;;;5066282;28;20052;-55
2021/09/17 05:18:45;;;;;;;1.48;1.38;;;;;;;;;;5066148;28;20028;-57
2021/09/17 05:21:11;;;;;;;1.75;1.60;;;;;;;;;;5071932;28;20025;-56
2021/09/17 05:23:37;;;;;;;1.60;1.50;;;;;;;;;;5081876;28;20039;-56
2021/09/17 05:26:04;;;;;;;1.60;1.50;;;;;;;;;;5065379;28;20032;-57
2021/09/17 05:28:30;;;;;;;1.95;1.70;;;;;;;;;;5064555;28;20107;-56
2021/09/17 05:30:57;;;;;;;1.90;1.70;;;;;;;;;;5065624;28;20040;-57
2021/09/17 05:33:23;;;;;;;1.50;1.40;;;;;;;;;;5065776;28;20024;-57
2021/09/17 05:35:49;;;;;;;1.65;1.55;;;;;;;;;;5055161;28;20411;-56
2021/09/17 05:38:15;;;;;;;2.05;1.85;;;;;;;;;;5084444;28;20017;-57
2021/09/17 05:40:41;;;;;;;1.88;1.60;;;;;;;;;;5088358;28;20028;-56
2021/09/17 05:43:07;;;;;;;1.65;1.55;;;;;;;;;;5089232;28;20124;-57
2021/09/17 05:45:33;;;;;;;1.65;1.55;;;;;;;;;;5087344;28;20031;-56
2021/09/17 05:47:59;;;;;;;2.35;1.70;;;;;;;;;;5089325;28;20032;-55
2021/09/17 05:50:25;;;;;;;1.58;1.40;;;;;;;;;;5089348;28;20059;-56
2021/09/17 05:52:52;;;;;;;1.15;1.10;;;;;;;;;;5083510;28;20032;-56
2021/09/17 05:55:18;;;;;;;2.25;1.77;;;;;;;;;;5073067;28;20029;-57
2021/09/17 05:57:44;;;;;;;1.42;1.33;;;;;;;;;;5075980;28;20028;-55
2021/09/17 06:00:11;;;;;;;1.27;1.13;;;;;;;;;;5084462;28;20027;-56
2021/09/17 06:02:37;;;;;;;1.63;1.52;;;;;;;;;;5068013;28;20029;-56
2021/09/17 06:05:04;;;;;;;1.27;1.17;;;;;;;;;;5068050;28;20028;-57
2021/09/17 06:07:30;;;;;;;1.50;1.40;;;;;;;;;;5068653;28;20103;-57
2021/09/17 06:09:56;;;;;;;1.45;1.35;;;;;;;;;;5068643;28;20025;-58
2021/09/17 06:12:23;;;;;;;2.05;1.85;;;;;;;;;;5068407;28;20060;-57
2021/09/17 06:14:49;;;;;;;2.03;1.83;;;;;;;;;;5074980;28;20035;-57
2021/09/17 06:17:15;;;;;;;2.53;1.70;;;;;;;;;;5085800;28;20028;-57
2021/09/17 06:19:41;;;;;;;2.22;2.03;;;;;;;;;;5085946;28;20107;-57
2021/09/17 06:22:07;;;;;;;2.22;2.03;;;;;;;;;;5087560;28;20056;-58
2021/09/17 06:24:33;;;;;;;2.22;2.03;;;;;;;;;;5087469;28;20031;-57
2021/09/17 06:26:59;;;;;;;2.38;2.17;;;;;;;;;;5088187;28;20036;-57
2021/09/17 06:29:25;;;;;;;2.60;2.40;;;;;;;;;;5075625;28;20482;-58
2021/09/17 06:31:51;;;;;;;2.88;2.58;;;;;;;;;;5068999;28;20043;-57
2021/09/17 06:34:17;;;;;;;3.03;2.72;;;;;;;;;;5066913;28;20020;-57
2021/09/17 06:36:43;;;;;;;2.90;2.60;;;;;;;;;;5053417;28;20055;-57
2021/09/17 06:39:10;;;;;;;3.20;2.90;;;;;;;;;;5071935;28;20028;-56
2021/09/17 06:41:36;;;;;;;4.78;3.22;;;;;;;;;;5076611;28;20056;-56
2021/09/17 06:44:02;;;;;;;3.70;3.08;;;;;;;;;;5054004;28;20399;-57
2021/09/17 06:46:28;;;;;;;4.10;2.95;;;;;;;;;;5065884;28;20170;-57
2021/09/17 06:48:54;;;;;;;4.18;3.30;;;;;;;;;;5067240;28;20021;-57
2021/09/17 06:51:20;;;;;;;3.42;3.13;;;;;;;;;;5066672;28;20498;-57
2021/09/17 06:53:46;;;;;;;3.70;3.25;;;;;;;;;;5068350;28;20147;-56
2021/09/17 06:56:13;;;;;;;3.83;3.35;;;;;;;;;;5067603;28;20052;-57
2021/09/17 06:58:39;;;;;;;3.47;3.10;;;;;;;;;;5065289;28;20411;-56
2021/09/17 07:01:05;;;;;;;3.50;3.17;;;;;;;;;;5073301;28;20082;-57
2021/09/17 07:03:31;;;;;;;3.17;2.88;;;;;;;;;;5067122;28;20028;-57
2021/09/17 07:05:58;;;;;;;3.33;3.03;;;;;;;;;;5066953;28;20048;-57
2021/09/17 07:08:24;;;;;;;3.10;2.85;;;;;;;;;;5065929;28;20036;-57
2021/09/17 07:10:51;;;;;;;3.58;3.28;;;;;;;;;;5059353;28;20037;-57
2021/09/17 07:13:17;;;;;;;3.40;3.10;;;;;;;;;;5075004;28;20538;-55
2021/09/17 07:15:43;;;;;;;2.70;2.50;;;;;;;;;;5070644;28;20031;-57
2021/09/17 07:18:09;;;;;;;3.33;3.03;;;;;;;;;;5066547;28;20024;-58
2021/09/17 07:20:36;;;;;;;3.42;3.13;;;;;;;;;;5063363;28;20029;-57
2021/09/17 07:23:03;;;;;;;3.20;2.70;;;;;;;;;;5067518;28;20024;-57
2021/09/17 07:25:30;;;;;;;2.58;2.38;;;;;;;;;;5063666;28;20042;-55
2021/09/17 07:27:56;;;;;;;3.50;3.00;;;;;;;;;;5050197;28;20555;-58
2021/09/17 07:30:23;;;;;;;2.92;2.63;;;;;;;;;;5068534;28;20029;-56
2021/09/17 07:32:49;;;;;;;2.75;2.55;;;;;;;;;;5060987;28;20048;-56
2021/09/17 07:35:15;;;;;;;2.40;2.20;;;;;;;;;;5072574;28;20384;-56
2021/09/17 07:37:42;;;;;;;3.05;2.75;;;;;;;;;;5073281;28;20034;-56
2021/09/17 07:40:10;;;;;;;3.03;2.80;;;;;;;;;;5066541;28;20025;-56
2021/09/17 07:42:37;;;;;;;2.90;2.70;;;;;;;;;;5069778;28;20033;-57
2021/09/17 07:45:03;;;;;;;3.20;2.90;;;;;;;;;;5075986;28;20039;-57
2021/09/17 07:47:29;;;;;;;3.13;2.83;;;;;;;;;;5067337;28;20041;-56
2021/09/17 07:49:56;;;;;;;3.25;2.85;;;;;;;;;;5066847;28;20032;-57
2021/09/17 07:52:23;;;;;;;2.90;2.70;;;;;;;;;;5067226;28;20032;-57
2021/09/17 07:54:49;;;;;;;3.45;2.90;;;;;;;;;;5078747;28;20035;-57
2021/09/17 07:57:15;;;;;;;3.45;3.15;;;;;;;;;;5085869;28;20032;-57
2021/09/17 07:59:41;;;;;;;3.40;3.10;;;;;;;;;;5068353;28;20066;-57
2021/09/17 08:02:08;;;;;;;3.28;2.97;;;;;;;;;;5065959;28;20036;-58
2021/09/17 08:04:37;;;;;;;2.80;2.50;;;;;;;;;;5057178;28;20028;-58
2021/09/17 08:07:05;;;;;;;3.20;2.90;;;;;;;;;;5067315;28;20043;-57
2021/09/17 08:09:31;;;;;;;2.83;2.53;;;;;;;;;;5068909;28;20060;-57
2021/09/17 08:11:57;;;;;;;3.17;2.88;;;;;;;;;;5077403;28;20028;-58
2021/09/17 08:14:23;;;;;;;3.60;3.30;;;;;;;;;;5076670;28;20020;-57
2021/09/17 08:16:49;;;;;;;3.45;3.15;;;;;;;;;;5085322;28;20100;-58
2021/09/17 08:19:15;;;;;;;2.25;2.05;;;;;;;;;;5086571;28;20027;-53
2021/09/17 08:21:43;;;;;;;3.13;2.63;;;;;;;;;;5066756;28;20035;-53
2021/09/17 08:24:14;;;;;;;2.45;2.25;;;;;;;;;;5074063;28;20098;-54
2021/09/17 08:26:40;;;;;;;2.30;2.08;;;;;;;;;;5085796;28;20575;-54
2021/09/17 08:29:07;;;;;;;2.75;2.03;;;;;;;;;;5076450;28;20021;-53
2021/09/17 08:31:33;;;;;;;2.88;2.30;;;;;;;;;;5068753;28;20031;-55
2021/09/17 08:33:59;;;;;;;2.15;1.95;;;;;;;;;;5075662;28;20070;-55
2021/09/17 08:36:25;;;;;;;2.45;2.25;;;;;;;;;;5086438;28;20463;-54
2021/09/17 08:38:51;;;;;;;2.05;1.85;;;;;;;;;;5084903;28;20028;-54
2021/09/17 08:41:17;;;;;;;2.15;1.95;;;;;;;;;;5085612;28;20012;-54
2021/09/17 08:43:43;;;;;;;2.08;1.92;;;;;;;;;;5076959;28;20060;-56
2021/09/17 08:46:13;;;;;;;2.03;1.88;;;;;;;;;;5083091;28;20059;-55
2021/09/17 08:48:41;;;;;;;2.05;1.85;;;;;;;;;;5086389;28;20107;-52
2021/09/17 08:51:07;;;;;;;2.22;2.03;;;;;;;;;;5085301;28;20038;-55
2021/09/17 08:53:33;;;;;;;2.70;1.80;;;;;;;;;;5078243;28;20036;-55
2021/09/17 08:55:59;;;;;;;2.03;1.83;;;;;;;;;;5072174;28;20050;-55
2021/09/17 08:58:25;;;;;;;1.77;1.67;;;;;;;;;;5085277;28;20073;-55
2021/09/17 09:00:52;;;;;;;1.52;1.40;;;;;;;;;;5084578;28;20028;-55
2021/09/17 09:03:27;;;;;;;1.33;1.23;;;;;;;;;;5080745;28;20403;-56
2021/09/17 09:05:53;;;;;;;1.90;1.40;;;;;;;;;;5065597;28;20040;-55
2021/09/17 09:08:26;;;;;;;1.38;1.27;;;;;;;;;;5079603;28;20503;-55
2021/09/17 09:10:52;;;;;;;1.35;1.25;;;;;;;;;;5074407;28;20105;-55
2021/09/17 09:13:18;;;;;;;1.33;1.23;;;;;;;;;;5077386;28;20552;-55
2021/09/17 09:15:44;;;;;;;1.75;1.60;;;;;;;;;;5079792;28;20034;-56
2021/09/17 09:18:12;;;;;;;1.50;1.40;;;;;;;;;;5089963;28;20254;-56
2021/09/17 09:20:41;;;;;;;1.70;1.50;;;;;;;;;;5085068;28;20403;-55
2021/09/17 09:23:14;;;;;;;1.60;1.40;;;;;;;;;;5062909;28;20036;-54
2021/09/17 09:25:57;;;;;;;1.38;1.27;;;;;;;;;;5049808;28;20036;-55
2021/09/17 09:28:44;;;;;;;1.23;1.13;;;;;;;;;;5066176;28;20039;-56
2021/09/17 09:31:12;;;;;;;1.25;1.15;;;;;;;;;;5068968;28;20032;-56
2021/09/17 09:33:48;;;;;;;1.42;1.33;;;;;;;;;;5069324;28;20107;-54
2021/09/17 09:36:15;;;;;;;1.45;1.35;;;;;;;;;;5069071;28;20016;-55
2021/09/17 09:38:44;;;;;;;1.58;1.48;;;;;;;;;;5084553;28;20089;-55
2021/09/17 09:41:14;;;;;;;3.30;1.90;;;;;;;;;;5089624;28;20028;-54
2021/09/17 09:43:49;;;;;;;1.40;1.27;;;;;;;;;;5088815;28;20088;-56
2021/09/17 09:46:14;;;;;;;;;;;;;;;;;;5084841;28;20040;-54
2021/09/17 09:48:41;;;;;;;1.30;1.20;;;;;;;;;;5069272;28;19909;-56
2021/09/17 09:51:13;;;;;;;1.30;1.20;;;;;;;;;;5068428;28;20028;-55
2021/09/17 09:53:39;;;;;;;2.38;1.33;;;;;;;;;;5051136;28;20070;-56
2021/09/17 09:56:05;;;;;;;1.13;1.00;;;;;;;;;;5073897;28;20035;-55
2021/09/17 09:58:31;;;;;;;1.00;0.90;;;;;;;;;;5067840;28;20529;-55
2021/09/17 10:00:57;;;;;;;1.38;1.27;;;;;;;;;;5076368;28;20433;-55
2021/09/17 10:03:23;;;;;;;0.90;0.90;;;;;;;;;;5069368;28;20089;-56
2021/09/17 10:05:50;;;;;;;1.13;1.08;;;;;;;;;;5069593;28;20036;-55
2021/09/17 10:08:16;;;;;;;1.20;1.10;;;;;;;;;;5067284;28;20024;-55
2021/09/17 10:10:45;;;;;;;1.00;0.95;;;;;;;;;;5068101;28;20047;-57
2021/09/17 10:13:11;;;;;;;0.90;0.90;;;;;;;;;;5068343;28;20036;-56
2021/09/17 10:15:37;;;;;;;0.90;0.90;;;;;;;;;;5068574;28;20021;-56
2021/09/17 10:18:03;;;;;;;0.98;0.98;;;;;;;;;;5068244;28;20039;-56
2021/09/17 10:20:36;;;;;;;0.95;0.95;;;;;;;;;;5067100;28;20037;-55
2021/09/17 10:23:22;;;;;;;1.20;1.10;;;;;;;;;;5065285;28;20593;-53
2021/09/17 10:26:05;;;;;;;0.90;0.90;;;;;;;;;;5088982;28;20032;-59
2021/09/17 10:28:33;;;;;;;1.42;1.10;;;;;;;;;;5088792;28;20604;-53
2021/09/17 10:31:16;;;;;;;1.75;0.98;;;;;;;;;;5088540;28;20043;-52
2021/09/17 10:33:43;;;;;;;1.35;1.25;;;;;;;;;;5086949;28;20028;-54
2021/09/17 10:36:09;;;;;;;1.42;1.05;;;;;;;;;;5080626;28;20052;-55
2021/09/17 10:38:35;;;;;;;0.77;0.77;;;;;;;;;;5058002;28;20396;-54
2021/09/17 10:41:02;;;;;;;1.05;0.98;;;;;;;;;;5048196;28;20053;-50
2021/09/17 10:43:28;;;;;;;1.45;1.02;;;;;;;;;;5065650;28;20044;-54
2021/09/17 10:46:11;;;;;;;1.20;1.10;;;;;;;;;;5067352;28;20032;-52
2021/09/17 10:48:45;;;;;;;1.25;1.15;;;;;;;;;;5070194;28;20033;-53
2021/09/17 10:51:28;;;;;;;1.10;1.05;;;;;;;;;;5088018;28;20079;-52
2021/09/17 10:53:55;;;;;;;1.00;0.90;;;;;;;;;;5084856;28;20099;-53
2021/09/17 10:56:21;;;;;;;0.80;0.80;;;;;;;;;;5067593;28;20391;-51
2021/09/17 10:59:07;;;;;;;1.38;1.27;;;;;;;;;;5068483;28;20040;-53
2021/09/17 11:01:50;;;;;;;1.10;1.00;;;;;;;;;;5067487;28;20043;-51
2021/09/17 11:04:20;;;;;;;1.08;0.95;;;;;;;;;;5067818;28;20032;-53
2021/09/17 11:06:46;;;;;;;1.30;1.20;;;;;;;;;;5066522;28;20020;-53
2021/09/17 11:09:12;;;;;;;0.70;0.70;;;;;;;;;;5067513;28;20052;-54
2021/09/17 11:11:43;;;;;;;0.80;0.80;;;;;;;;;;5049796;28;20059;-54
2021/09/17 11:14:09;;;;;;;1.10;1.10;;;;;;;;;;5067672;28;20047;-51
2021/09/17 11:16:35;;;;;;;0.80;0.80;;;;;;;;;;5067011;28;20636;-53
2021/09/17 11:19:06;;;;;;;0.90;0.90;;;;;;;;;;5066806;28;20032;-52
2021/09/17 11:21:40;;;;;;;0.90;0.90;;;;;;;;;;5067187;28;20025;-54
2021/09/17 11:24:07;;;;;;;0.95;0.95;;;;;;;;;;5066191;28;20028;-49
2021/09/17 11:26:34;;;;;;;0.90;0.90;;;;;;;;;;5067175;28;20120;-52
2021/09/17 11:29:05;;;;;;;0.80;0.80;;;;;;;;;;5067034;28;20024;-49
2021/09/17 11:31:34;;;;;;;1.10;1.00;;;;;;;;;;5066459;28;20040;-50
2021/09/17 11:34:01;;;;;;;1.00;0.90;;;;;;;;;;5087239;28;20032;-51
2021/09/17 11:36:34;;;;;;;0.70;0.70;;;;;;;;;;5076217;28;20020;-49
2021/09/17 11:39:12;;;;;;;0.70;0.70;;;;;;;;;;5079128;28;20028;-52
2021/09/17 11:41:39;;;;;;;0.70;0.70;;;;;;;;;;5065774;28;20368;-52
2021/09/17 11:44:05;;;;;;;0.80;0.80;;;;;;;;;;5071967;28;20047;-52
2021/09/17 11:46:31;;;;;;;0.80;0.80;;;;;;;;;;5066916;28;20044;-51
2021/09/17 11:48:57;;;;;;;1.05;0.95;;;;;;;;;;5066854;28;20028;-52
2021/09/17 11:51:23;;;;;;;1.00;0.70;;;;;;;;;;5066590;28;20031;-50
2021/09/17 11:53:50;;;;;;;1.02;0.70;;;;;;;;;;5067572;28;20064;-52
2021/09/17 11:56:16;;;;;;;0.60;0.60;;;;;;;;;;5066672;28;20021;-52
2021/09/17 11:58:46;;;;;;;0.70;0.70;;;;;;;;;;5060321;28;20112;-53
2021/09/17 12:01:19;;;;;;;0.70;0.70;;;;;;;;;;5066251;28;20100;-52
2021/09/17 12:03:46;;;;;;;0.77;0.70;;;;;;;;;;5066330;28;20049;-52
2021/09/17 12:06:14;;;;;;;0.73;0.70;;;;;;;;;;5055548;28;20130;-50
2021/09/17 12:08:41;;;;;;;0.80;0.80;;;;;;;;;;5066072;28;20500;-52
2021/09/17 12:11:07;;;;;;;0.65;0.60;;;;;;;;;;5066161;28;20415;-51
2021/09/17 12:13:33;;;;;;;0.82;0.82;;;;;;;;;;5067321;28;20030;-50
2021/09/17 12:15:59;;;;;;;0.60;0.60;;;;;;;;;;5065963;28;20078;-48
2021/09/17 12:18:29;;;;;;;0.63;0.63;;;;;;;;;;5065519;28;20028;-50
2021/09/17 12:20:56;;;;;;;0.88;0.88;;;;;;;;;;5067260;28;20025;-49
2021/09/17 12:23:33;;;;;;;0.80;0.80;;;;;;;;;;5067345;28;20601;-52
2021/09/17 12:26:11;;;;;;;0.65;0.65;;;;;;;;;;5066215;28;20040;-53
2021/09/17 12:28:38;;;;;;;0.80;0.80;;;;;;;;;;5066524;28;20025;-52
2021/09/17 12:31:04;;;;;;;0.70;0.70;;;;;;;;;;5065994;28;20029;-48
2021/09/17 12:33:33;;;;;;;0.80;0.80;;;;;;;;;;5065597;28;20107;-49
2021/09/17 12:36:14;;;;;;;0.90;0.90;;;;;;;;;;5065971;28;20033;-52
2021/09/17 12:38:42;;;;;;;0.60;0.60;;;;;;;;;;5066246;28;20078;-50
2021/09/17 12:41:09;;;;;;;1.48;0.88;;;;;;;;;;5065972;28;20078;-51
2021/09/17 12:43:36;;;;;;;0.57;0.57;;;;;;;;;;5065851;28;20039;-52
2021/09/17 12:46:09;;;;;;;1.05;0.55;;;;;;;;;;5065573;28;20453;-50
2021/09/17 12:48:36;;;;;;;0.70;0.70;;;;;;;;;;5064002;28;20025;-52
2021/09/17 12:51:03;;;;;;;0.70;0.70;;;;;;;;;;5069798;28;20024;-51
2021/09/17 12:53:36;;;;;;;0.63;0.63;;;;;;;;;;5070984;28;20106;-49
2021/09/17 12:56:09;;;;;;;0.70;0.70;;;;;;;;;;5070916;28;20025;-49
2021/09/17 12:58:36;;;;;;;0.60;0.60;;;;;;;;;;5070966;28;20353;-53
2021/09/17 13:01:04;;;;;;;0.63;0.63;;;;;;;;;;5070673;28;20021;-50
2021/09/17 13:03:30;;;;;;;0.77;0.77;;;;;;;;;;5070385;28;20036;-49
2021/09/17 13:05:58;;;;;;;0.60;0.60;;;;;;;;;;5070723;28;20114;-51
2021/09/17 13:08:25;;;;;;;0.70;0.70;;;;;;;;;;5070349;28;20028;-52
2021/09/17 13:10:52;;;;;;;0.70;0.70;;;;;;;;;;5069535;28;20028;-53
2021/09/17 13:13:18;;;;;;;1.90;0.98;;;;;;;;;;5071255;28;20437;-49
2021/09/17 13:15:46;;;;;;;0.65;0.65;;;;;;;;;;5070251;28;20028;-52
2021/09/17 13:18:13;;;;;;;0.95;0.95;;;;;;;;;;5070224;28;20066;-52
2021/09/17 13:20:40;;;;;;;0.98;0.85;;;;;;;;;;5070867;28;20024;-52
2021/09/17 13:23:07;;;;;;;0.90;0.80;;;;;;;;;;5070323;28;20024;-51
2021/09/17 13:25:33;;;;;;;0.88;0.80;;;;;;;;;;5070350;28;20082;-52
2021/09/17 13:28:00;;;;;;;0.80;0.80;;;;;;;;;;5070001;28;20765;-51
2021/09/17 13:30:28;;;;;;;0.80;0.80;;;;;;;;;;5070318;28;20107;-50
2021/09/17 13:32:54;;;;;;;0.90;0.60;;;;;;;;;;5069934;28;20039;-52
2021/09/17 13:35:22;;;;;;;0.70;0.70;;;;;;;;;;5070753;28;20032;-49
2021/09/17 13:37:49;;;;;;;0.80;0.80;;;;;;;;;;5070971;28;20028;-49
2021/09/17 13:40:17;;;;;;;1.08;0.98;;;;;;;;;;5069721;28;20033;-52
2021/09/17 13:42:43;;;;;;;0.90;0.90;;;;;;;;;;5070243;28;20119;-52
2021/09/17 13:45:10;;;;;;;0.68;0.68;;;;;;;;;;5069415;28;20076;-49
2021/09/17 13:47:37;;;;;;;0.80;0.80;;;;;;;;;;5067463;28;20028;-52
2021/09/17 13:50:03;;;;;;;0.70;0.70;;;;;;;;;;5074002;28;20107;-49
2021/09/17 13:52:29;;;;;;;0.73;0.73;;;;;;;;;;5076654;28;20043;-49
2021/09/17 13:54:56;;;;;;;0.50;0.50;;;;;;;;;;5068417;28;20108;-49
2021/09/17 13:57:22;;;;;;;0.68;0.68;;;;;;;;;;5068944;28;20112;-52
2021/09/17 13:59:48;;;;;;;0.60;0.60;;;;;;;;;;5069282;28;20035;-53
2021/09/17 14:02:14;;;;;;;0.50;0.50;;;;;;;;;;5065745;28;20567;-51
2021/09/17 14:04:40;;;;;;;0.60;0.60;;;;;;;;;;5061874;28;20506;-50
2021/09/17 14:07:06;;;;;;;0.60;0.60;;;;;;;;;;5088558;28;20071;-51
2021/09/17 14:09:33;;;;;;;0.82;0.82;;;;;;;;;;5071744;28;20107;-49
2021/09/17 14:11:59;;;;;;;0.60;0.60;;;;;;;;;;5068350;28;20032;-48
2021/09/17 14:14:25;;;;;;;1.52;0.68;;;;;;;;;;5069274;28;20036;-52
2021/09/17 14:16:51;;;;;;;0.70;0.70;;;;;;;;;;5068446;28;20033;-52
2021/09/17 14:19:17;;;;;;;0.65;0.57;;;;;;;;;;5068538;28;20070;-52
2021/09/17 14:21:44;;;;;;;0.85;0.80;;;;;;;;;;5068791;28;20099;-52
2021/09/17 14:24:11;;;;;;;0.90;0.90;;;;;;;;;;5067104;28;20067;-53
2021/09/17 14:26:37;;;;;;;0.60;0.60;;;;;;;;;;5055289;28;20060;-51
2021/09/17 14:29:05;;;;;;;0.80;0.80;;;;;;;;;;5044423;28;20115;-50
2021/09/17 14:31:31;;;;;;;0.70;0.70;;;;;;;;;;5047769;28;20060;-51
2021/09/17 14:33:57;;;;;;;0.52;0.52;;;;;;;;;;5046984;28;20521;-54
2021/09/17 14:36:24;;;;;;;0.70;0.70;;;;;;;;;;5064374;28;20075;-51
2021/09/17 14:38:51;;;;;;;0.70;0.68;;;;;;;;;;5067687;28;20027;-53
2021/09/17 14:41:17;;;;;;;0.95;0.85;;;;;;;;;;5064993;28;20199;-52
2021/09/17 14:43:43;;;;;;;0.60;0.60;;;;;;;;;;5064817;28;20032;-52